Time;durP1;ratioP1;P1;durP2;ratioP2;P2;SDS_P1;SDS_P2;PMS_P1;PMS_P2;Temp;Humidity;BMP_temperature;BMP_pressure;BME280_temperature;BME280_humidity;BME280_pressure;Samples;Min_cycle;Max_cycle;Signal;HPM_P1;HPM_P2
2023/01/03 00:01:22;;;;;;;2.10;0.70;;;9.00;99.90;;;;;;5050631;28;21413;-72
2023/01/03 00:03:48;;;;;;;2.00;0.70;;;9.00;99.90;;;;;;5051611;28;20467;-72
2023/01/03 00:06:28;;;;;;;4.10;0.70;;;9.00;99.90;;;;;;5051388;28;20716;-72
2023/01/03 00:08:55;;;;;;;2.37;0.90;;;9.10;99.90;;;;;;5050946;28;20416;-72
2023/01/03 00:14:16;;;;;;;4.10;1.00;;;9.10;99.90;;;;;;5050964;28;20445;-72
2023/01/03 00:16:41;;;;;;;2.70;0.90;;;9.00;99.90;;;;;;5051570;28;20411;-72
2023/01/03 00:19:09;;;;;;;5.10;0.90;;;9.00;99.90;;;;;;5051164;28;20977;-73
2023/01/03 00:21:35;;;;;;;2.80;0.90;;;9.00;99.90;;;;;;5050764;28;20205;-72
2023/01/03 00:24:01;;;;;;;3.60;1.10;;;9.00;99.90;;;;;;5050313;28;20459;-73
2023/01/03 00:26:27;;;;;;;5.40;1.20;;;9.00;99.90;;;;;;5051983;28;20173;-72
2023/01/03 00:28:52;;;;;;;5.73;1.17;;;9.00;99.90;;;;;;5051241;28;20256;-72
2023/01/03 00:31:17;;;;;;;3.33;0.90;;;8.90;99.90;;;;;;5050335;28;20212;-72
2023/01/03 00:33:43;;;;;;;4.07;0.80;;;8.90;99.90;;;;;;5051271;28;20185;-72
2023/01/03 00:36:09;;;;;;;3.37;0.70;;;8.80;99.90;;;;;;5051010;28;20189;-73
2023/01/03 00:38:35;;;;;;;3.43;0.70;;;8.80;99.90;;;;;;5050518;28;20182;-72
2023/01/03 00:41:06;;;;;;;3.77;0.93;;;8.80;99.90;;;;;;5050130;28;20712;-72
2023/01/03 00:43:33;;;;;;;4.43;0.97;;;8.80;99.90;;;;;;5050936;28;20467;-71
2023/01/03 00:45:59;;;;;;;3.93;1.50;;;8.70;99.90;;;;;;5050419;28;20419;-73
2023/01/03 00:48:25;;;;;;;3.50;0.90;;;8.70;99.90;;;;;;5051088;28;20904;-73
2023/01/03 00:50:51;;;;;;;3.90;0.93;;;8.70;99.90;;;;;;5033177;28;20169;-73
2023/01/03 00:53:16;;;;;;;4.50;1.00;;;8.70;99.90;;;;;;5050741;28;20416;-73
2023/01/03 00:55:42;;;;;;;3.57;0.77;;;8.70;99.90;;;;;;5049933;28;20674;-74
2023/01/03 00:58:07;;;;;;;3.53;0.80;;;8.70;99.90;;;;;;5050600;28;20620;-72
2023/01/03 01:00:33;;;;;;;3.67;0.90;;;8.60;99.90;;;;;;5050593;28;20174;-72
2023/01/03 01:02:58;;;;;;;3.23;0.80;;;8.60;99.90;;;;;;5049390;28;20216;-72
2023/01/03 01:05:24;;;;;;;4.43;1.13;;;8.60;99.90;;;;;;5050480;28;20535;-72
2023/01/03 01:07:50;;;;;;;3.60;0.90;;;8.50;99.90;;;;;;5049659;28;20180;-72
2023/01/03 01:10:19;;;;;;;4.00;1.00;;;8.50;99.90;;;;;;5049669;28;20239;-72
2023/01/03 01:12:45;;;;;;;3.67;1.23;;;8.50;99.90;;;;;;5049629;28;20197;-72
2023/01/03 01:15:11;;;;;;;4.50;0.97;;;8.50;99.90;;;;;;5050135;28;20779;-73
2023/01/03 01:17:37;;;;;;;3.37;0.90;;;8.50;99.90;;;;;;5050119;28;20473;-72
2023/01/03 01:20:03;;;;;;;4.60;0.80;;;8.50;99.90;;;;;;5049507;28;20246;-72
2023/01/03 01:22:29;;;;;;;3.57;0.90;;;8.50;99.90;;;;;;5049383;28;20451;-72
2023/01/03 01:24:54;;;;;;;3.07;0.80;;;8.50;99.90;;;;;;5031891;28;20556;-72
2023/01/03 01:27:20;;;;;;;4.03;1.00;;;8.50;99.90;;;;;;5050485;28;20176;-72
2023/01/03 01:29:46;;;;;;;3.33;0.90;;;8.40;99.90;;;;;;5049973;28;20182;-72
2023/01/03 01:32:11;;;;;;;3.73;1.10;;;8.40;99.90;;;;;;5048468;28;20234;-72
2023/01/03 01:34:37;;;;;;;3.83;0.97;;;8.40;99.90;;;;;;5050011;28;20176;-72
2023/01/03 01:37:03;;;;;;;3.37;0.70;;;8.40;99.90;;;;;;5050130;28;20181;-73
2023/01/03 01:39:29;;;;;;;2.70;0.70;;;8.40;99.90;;;;;;5031700;28;20191;-73
2023/01/03 01:44:51;;;;;;;4.60;1.00;;;8.30;99.90;;;;;;5049846;28;20765;-72
2023/01/03 01:47:19;;;;;;;3.10;0.97;;;8.30;99.90;;;;;;5049487;28;20962;-73
2023/01/03 01:49:47;;;;;;;3.63;1.10;;;8.30;99.90;;;;;;5049863;28;20412;-72
2023/01/03 01:52:16;;;;;;;3.00;0.73;;;8.20;99.90;;;;;;5049047;28;20431;-72
2023/01/03 01:54:42;;;;;;;3.83;0.90;;;8.10;99.90;;;;;;5049725;28;20429;-72
2023/01/03 01:57:13;;;;;;;3.47;0.70;;;8.10;99.90;;;;;;5031908;28;20426;-73
2023/01/03 01:59:38;;;;;;;3.07;0.80;;;8.00;99.90;;;;;;5049294;28;20181;-72
2023/01/03 03:32:44;;;;;;;4.83;1.20;;;6.90;99.90;;;;;;5266015;22;20506;-74
2023/01/03 03:35:14;;;;;;;4.13;0.77;;;6.90;99.90;;;;;;5063457;28;20446;-72
2023/01/03 03:37:43;;;;;;;3.47;1.00;;;6.80;99.90;;;;;;5071337;28;20426;-71
2023/01/03 03:45:48;;;;;;;2.53;0.70;;;6.70;99.90;;;;;;5051202;28;20482;-71
2023/01/03 03:51:47;;;;;;;3.53;0.80;;;6.70;99.90;;;;;;4997400;28;20935;-72
2023/01/03 03:54:18;;;;;;;3.43;0.80;;;6.60;99.90;;;;;;5031504;28;20476;-71
2023/01/03 03:56:47;;;;;;;3.50;0.90;;;6.50;99.90;;;;;;5040305;28;20841;-71
2023/01/03 03:59:16;;;;;;;3.70;1.10;;;6.50;99.90;;;;;;5051862;28;20411;-72
2023/01/03 04:01:44;;;;;;;4.23;0.70;;;6.40;99.90;;;;;;5049243;28;20480;-71
2023/01/03 04:04:23;;;;;;;3.50;0.90;;;6.30;99.90;;;;;;5051649;28;20539;-71
2023/01/03 04:06:50;;;;;;;6.60;1.17;;;6.30;99.90;;;;;;5051632;28;20428;-71
2023/01/03 04:09:16;;;;;;;3.50;0.90;;;6.20;99.90;;;;;;5051049;28;20407;-71
2023/01/03 04:11:42;;;;;;;2.80;0.73;;;6.20;99.90;;;;;;5050540;28;20427;-72
2023/01/03 04:14:08;;;;;;;3.00;0.80;;;6.10;99.90;;;;;;5052874;28;20481;-72
2023/01/03 04:16:33;;;;;;;3.03;0.90;;;6.10;99.90;;;;;;5053047;28;20194;-71
2023/01/03 04:18:59;;;;;;;4.53;0.90;;;6.00;99.90;;;;;;5053496;28;20186;-72
2023/01/03 04:21:24;;;;;;;2.90;0.63;;;6.00;99.90;;;;;;5052142;28;20572;-72
2023/01/03 04:23:50;;;;;;;4.43;1.03;;;5.90;99.90;;;;;;5051569;28;20215;-72
2023/01/03 04:26:16;;;;;;;3.60;0.97;;;5.90;99.90;;;;;;5051056;28;20207;-71
2023/01/03 04:28:41;;;;;;;4.03;0.80;;;5.80;99.90;;;;;;5051216;28;20180;-72
2023/01/03 04:31:07;;;;;;;4.87;1.03;;;5.80;99.90;;;;;;5049874;28;20197;-71
2023/01/03 04:33:32;;;;;;;6.87;0.90;;;5.70;99.90;;;;;;5051143;28;20268;-71
2023/01/03 04:35:58;;;;;;;4.73;1.07;;;5.70;99.90;;;;;;5051011;28;20207;-71
2023/01/03 04:38:23;;;;;;;3.80;0.80;;;5.60;99.90;;;;;;5051439;28;20648;-71
2023/01/03 04:40:49;;;;;;;5.27;1.07;;;5.60;99.90;;;;;;5050424;28;20231;-71
2023/01/03 04:45:58;;;;;;;7.60;1.37;;;5.50;99.90;;;;;;5050589;28;20198;-72
2023/01/03 04:48:24;;;;;;;3.83;0.80;;;5.40;99.90;;;;;;5033291;28;20419;-72
2023/01/03 04:50:54;;;;;;;5.77;1.00;;;5.40;99.90;;;;;;5050396;28;20188;-71
2023/01/03 04:53:20;;;;;;;3.40;0.90;;;5.30;99.90;;;;;;5050524;28;20191;-72
2023/01/03 04:55:49;;;;;;;4.60;1.33;;;5.30;99.90;;;;;;5051005;28;20846;-71
2023/01/03 04:58:15;;;;;;;352.13;116.90;;;5.30;99.90;;;;;;5050898;28;20428;-71
2023/01/03 05:00:40;;;;;;;4.67;1.30;;;5.30;99.90;;;;;;5050560;28;20418;-71
2023/01/03 05:03:06;;;;;;;2.30;1.00;;;5.30;99.90;;;;;;5051521;28;20575;-72
2023/01/03 05:05:31;;;;;;;1.73;1.00;;;5.20;99.90;;;;;;5041510;28;20191;-72
2023/01/03 05:07:57;;;;;;;2.93;0.90;;;5.20;99.90;;;;;;5048139;28;20193;-72
2023/01/03 05:10:22;;;;;;;5.83;1.20;;;5.20;99.90;;;;;;5051220;28;20255;-72
2023/01/03 05:12:58;;;;;;;2.80;1.20;;;5.20;99.90;;;;;;5049920;28;20195;-71
2023/01/03 05:15:28;;;;;;;2.00;1.33;;;5.30;99.90;;;;;;5045571;28;20183;-73
2023/01/03 05:17:54;;;;;;;1.77;1.10;;;5.30;99.90;;;;;;5045563;28;20480;-73
2023/01/03 05:25:48;;;;;;;3.20;1.60;;;5.40;99.90;;;;;;5030789;28;20460;-71
2023/01/03 05:28:14;;;;;;;2.17;1.23;;;5.40;99.90;;;;;;5031841;28;20460;-70
2023/01/03 05:30:40;;;;;;;1.60;1.00;;;5.40;99.90;;;;;;5050225;28;20922;-70
2023/01/03 05:33:05;;;;;;;2.37;1.50;;;5.30;99.90;;;;;;5049850;28;20531;-70
2023/01/03 05:35:31;;;;;;;2.03;1.30;;;5.30;99.90;;;;;;5050233;28;20180;-70
2023/01/03 05:37:56;;;;;;;2.90;1.20;;;5.30;99.90;;;;;;5049915;28;20179;-70
2023/01/03 05:40:22;;;;;;;4.33;1.70;;;5.30;99.90;;;;;;5049571;28;20183;-70
2023/01/03 05:42:47;;;;;;;3.37;1.47;;;5.30;99.90;;;;;;5035162;28;20197;-70
2023/01/03 05:45:13;;;;;;;3.33;1.90;;;5.30;99.90;;;;;;5030289;28;20315;-70
2023/01/03 05:47:38;;;;;;;1.70;1.17;;;5.20;99.90;;;;;;5043937;28;20230;-70
2023/01/03 05:50:05;;;;;;;3.30;1.40;;;5.20;99.90;;;;;;5049859;28;20558;-70
2023/01/03 05:52:30;;;;;;;2.90;1.20;;;5.20;99.90;;;;;;5048812;28;20200;-70
2023/01/03 05:54:56;;;;;;;1.70;1.37;;;5.20;99.90;;;;;;5053631;28;20511;-70
2023/01/03 05:57:21;;;;;;;3.20;1.90;;;5.20;99.90;;;;;;5054133;28;20648;-70
2023/01/03 05:59:47;;;;;;;4.50;1.70;;;5.10;99.90;;;;;;5053723;28;20189;-71
2023/01/03 06:02:12;;;;;;;4.20;1.20;;;5.10;99.90;;;;;;5052927;28;20254;-69
2023/01/03 06:04:38;;;;;;;4.07;2.10;;;5.10;99.90;;;;;;5053921;28;20218;-71
2023/01/03 06:07:04;;;;;;;2.57;1.50;;;5.00;99.90;;;;;;5049142;28;20565;-71
2023/01/03 06:09:30;;;;;;;1.73;1.10;;;5.00;99.90;;;;;;5040427;28;20204;-71
2023/01/03 06:11:56;;;;;;;3.37;1.30;;;5.00;99.90;;;;;;5034796;28;20438;-70
2023/01/03 06:14:21;;;;;;;2.33;1.40;;;5.00;99.90;;;;;;5053950;28;20990;-70
2023/01/03 06:19:31;;;;;;;1.40;1.23;;;5.00;99.90;;;;;;5044165;28;20200;-69
2023/01/03 06:21:56;;;;;;;2.27;1.10;;;4.90;99.90;;;;;;5042985;28;20456;-70
2023/01/03 06:24:22;;;;;;;2.40;1.37;;;4.90;99.90;;;;;;5038244;28;20293;-70
2023/01/03 06:26:47;;;;;;;2.03;1.20;;;4.90;99.90;;;;;;5052156;28;20611;-70
2023/01/03 06:29:13;;;;;;;3.47;1.30;;;4.90;99.90;;;;;;5052113;28;20229;-69
2023/01/03 06:31:39;;;;;;;1.73;1.10;;;4.90;99.90;;;;;;5050604;28;20239;-70
2023/01/03 06:34:04;;;;;;;1.67;1.23;;;4.90;99.90;;;;;;5052306;28;20181;-70
2023/01/03 06:36:33;;;;;;;3.03;1.53;;;4.90;99.90;;;;;;5053414;28;20186;-70
2023/01/03 06:38:59;;;;;;;2.47;1.40;;;4.90;99.90;;;;;;5053517;28;20583;-71
2023/01/03 06:41:25;;;;;;;2.70;1.43;;;4.80;99.90;;;;;;5053305;28;20561;-72
2023/01/03 06:43:52;;;;;;;8.23;1.40;;;4.80;99.90;;;;;;5054613;28;20457;-71
2023/01/03 06:54:34;;;;;;;3.80;1.40;;;4.70;99.90;;;;;;5052671;28;20889;-70
2023/01/03 06:57:00;;;;;;;3.43;1.10;;;4.80;99.90;;;;;;5051004;28;20500;-70
2023/01/03 06:59:26;;;;;;;1.23;0.90;;;4.80;99.90;;;;;;5051653;28;20972;-71
2023/01/03 07:01:52;;;;;;;1.43;1.23;;;4.80;99.90;;;;;;5052018;28;20202;-70
2023/01/03 07:04:19;;;;;;;5.20;1.37;;;4.80;99.90;;;;;;5051687;28;20890;-70
2023/01/03 07:06:45;;;;;;;3.90;1.30;;;4.70;99.90;;;;;;5052088;28;21076;-69
2023/01/03 07:09:11;;;;;;;1.80;1.40;;;4.70;99.90;;;;;;5052850;28;20443;-69
2023/01/03 07:11:37;;;;;;;2.20;1.40;;;4.70;99.90;;;;;;5051716;28;20189;-69
2023/01/03 07:14:05;;;;;;;1.50;1.40;;;4.70;99.90;;;;;;5052248;28;20416;-70
2023/01/03 07:16:34;;;;;;;1.97;1.30;;;4.70;99.90;;;;;;5052499;28;20834;-69
2023/01/03 07:19:00;;;;;;;3.27;1.63;;;4.70;99.90;;;;;;5052573;28;20416;-70
2023/01/03 07:21:28;;;;;;;3.30;1.77;;;4.60;99.90;;;;;;5033224;28;20813;-68
2023/01/03 07:24:00;;;;;;;4.30;2.00;;;4.60;99.90;;;;;;5052236;28;20504;-69
2023/01/03 07:26:27;;;;;;;2.00;1.50;;;4.60;99.90;;;;;;5052508;28;20466;-69
2023/01/03 07:28:53;;;;;;;1.93;1.70;;;4.60;99.90;;;;;;5052634;28;20504;-69
2023/01/03 07:31:18;;;;;;;2.30;1.70;;;4.60;99.90;;;;;;5051519;28;20468;-69
2023/01/03 07:33:44;;;;;;;5.30;1.90;;;4.50;99.90;;;;;;5051322;28;20184;-69
2023/01/03 07:36:12;;;;;;;3.83;2.23;;;4.50;99.90;;;;;;5052493;28;20174;-68
2023/01/03 07:38:39;;;;;;;7.53;2.00;;;4.50;99.90;;;;;;5052349;28;20254;-69
2023/01/03 07:41:08;;;;;;;4.30;1.67;;;4.50;99.90;;;;;;5051260;28;20470;-68
2023/01/03 07:43:38;;;;;;;5.33;1.93;;;4.50;99.90;;;;;;5033795;28;20481;-70
2023/01/03 07:46:20;;;;;;;3.67;1.33;;;4.50;99.90;;;;;;5051699;28;20417;-69
2023/01/03 07:48:51;;;;;;;2.30;1.40;;;4.60;99.90;;;;;;5051749;28;20416;-69
2023/01/03 07:51:18;;;;;;;2.10;1.10;;;4.70;99.90;;;;;;5051259;28;20429;-69
2023/01/03 07:53:45;;;;;;;6.63;1.33;;;4.70;99.90;;;;;;5051168;28;20420;-69
2023/01/03 07:56:13;;;;;;;1.90;1.23;;;4.80;99.90;;;;;;5051951;28;20811;-68
2023/01/03 07:58:40;;;;;;;3.43;1.20;;;4.90;99.90;;;;;;5052058;28;20411;-69
2023/01/03 08:01:08;;;;;;;1.53;1.10;;;5.10;99.90;;;;;;5051054;28;20430;-68
2023/01/03 08:03:35;;;;;;;1.40;1.07;;;5.20;99.90;;;;;;5051414;28;20472;-69
2023/01/03 08:06:03;;;;;;;2.00;1.10;;;5.20;99.90;;;;;;5051319;28;20410;-69
2023/01/03 08:08:28;;;;;;;5.00;1.30;;;5.30;99.90;;;;;;5051840;28;20470;-69
2023/01/03 08:13:52;;;;;;;3.53;1.57;;;5.50;99.90;;;;;;5028253;28;20217;-69
2023/01/03 08:16:18;;;;;;;4.10;1.90;;;5.50;99.90;;;;;;5050901;28;20505;-69
2023/01/03 08:18:44;;;;;;;1.93;1.27;;;5.70;99.90;;;;;;5051276;28;20231;-69
2023/01/03 08:21:12;;;;;;;5.43;1.10;;;5.80;99.90;;;;;;5050456;28;20945;-66
2023/01/03 08:23:39;;;;;;;2.17;1.50;;;5.80;99.90;;;;;;5051403;28;20463;-69
2023/01/03 08:26:13;;;;;;;2.93;1.37;;;5.90;99.90;;;;;;5051516;28;20424;-69
2023/01/03 08:28:40;;;;;;;3.13;1.37;;;6.00;99.90;;;;;;5051447;28;20407;-69
2023/01/03 08:31:10;;;;;;;2.50;1.53;;;6.10;99.90;;;;;;5049749;28;20441;-69
2023/01/03 08:33:43;;;;;;;1.60;1.43;;;6.10;99.90;;;;;;5051255;28;20414;-69
2023/01/03 08:36:10;;;;;;;2.13;1.43;;;6.20;99.90;;;;;;5051388;28;20419;-69
2023/01/03 08:38:44;;;;;;;5.60;1.50;;;6.30;99.90;;;;;;5051392;28;20416;-70
2023/01/03 08:41:12;;;;;;;5.53;1.47;;;6.40;99.90;;;;;;5050222;28;20449;-68
2023/01/03 08:43:39;;;;;;;4.00;1.67;;;6.40;99.90;;;;;;5051185;28;20447;-70
2023/01/03 08:46:08;;;;;;;6.40;1.53;;;6.50;99.90;;;;;;5051667;28;20476;-69
2023/01/03 08:48:33;;;;;;;3.83;2.07;;;6.60;99.90;;;;;;5050956;28;20397;-70
2023/01/03 08:51:00;;;;;;;4.60;1.70;;;6.60;99.90;;;;;;5050864;28;20933;-70
2023/01/03 08:53:27;;;;;;;2.83;2.37;;;6.60;99.90;;;;;;5051060;28;20180;-69
2023/01/03 08:55:53;;;;;;;3.20;1.90;;;6.80;99.90;;;;;;5050647;28;20424;-70
2023/01/03 08:58:18;;;;;;;6.77;2.40;;;6.80;99.90;;;;;;5050920;28;20940;-69
2023/01/03 09:00:44;;;;;;;2.93;2.50;;;6.90;99.90;;;;;;5050354;28;20587;-69
2023/01/03 09:03:09;;;;;;;3.13;2.83;;;6.90;99.90;;;;;;5050255;28;20537;-68
2023/01/03 09:05:35;;;;;;;3.73;2.40;;;7.10;99.90;;;;;;5050901;28;20197;-71
2023/01/03 09:08:01;;;;;;;3.77;3.30;;;7.10;99.90;;;;;;5050770;28;20638;-70
2023/01/03 09:10:27;;;;;;;13.53;3.03;;;7.20;99.90;;;;;;5050725;28;20183;-70
2023/01/03 09:12:52;;;;;;;4.67;2.80;;;7.30;99.90;;;;;;5049581;28;20192;-70
2023/01/03 09:15:18;;;;;;;7.03;3.17;;;7.40;99.90;;;;;;5050615;28;20182;-72
2023/01/03 09:17:46;;;;;;;4.30;3.30;;;7.40;99.90;;;;;;5050473;28;20619;-71
2023/01/03 09:20:12;;;;;;;5.90;3.60;;;7.50;99.90;;;;;;5049706;28;20174;-71
2023/01/03 09:22:39;;;;;;;4.27;3.00;;;7.60;99.90;;;;;;5049554;28;20430;-72
2023/01/03 09:25:04;;;;;;;3.93;2.87;;;7.70;99.90;;;;;;5050298;28;20467;-71
2023/01/03 09:27:30;;;;;;;3.13;2.83;;;7.90;99.90;;;;;;5049730;28;20503;-70
2023/01/03 09:29:55;;;;;;;6.53;2.63;;;8.00;99.90;;;;;;5049907;28;20184;-72
2023/01/03 09:32:21;;;;;;;2.27;2.07;;;8.10;99.90;;;;;;5049505;28;20210;-72
2023/01/03 09:34:46;;;;;;;3.33;2.10;;;8.10;99.90;;;;;;5049795;28;20177;-71
2023/01/03 09:37:12;;;;;;;4.70;2.80;;;8.10;99.90;;;;;;5050328;28;20192;-71
2023/01/03 09:39:39;;;;;;;3.67;2.57;;;8.20;99.90;;;;;;5050088;28;20182;-72
2023/01/03 09:44:52;;;;;;;5.00;2.80;;;8.40;99.90;;;;;;5049771;28;20562;-71
2023/01/03 09:47:21;;;;;;;5.40;2.53;;;8.60;99.90;;;;;;5050222;28;20418;-71
2023/01/03 09:49:48;;;;;;;3.57;2.30;;;8.80;99.90;;;;;;5050237;28;20536;-72
2023/01/03 10:04:33;;;;;;;6.33;2.30;;;9.40;99.90;;;;;;5049738;28;20831;-71
2023/01/03 10:07:06;;;;;;;6.73;2.10;;;9.50;99.90;;;;;;5049485;28;20411;-71
2023/01/03 10:09:42;;;;;;;3.47;1.83;;;9.60;99.90;;;;;;5049951;28;20400;-71
2023/01/03 10:12:30;;;;;;;4.10;2.10;;;9.60;99.90;;;;;;5048985;28;20427;-69
2023/01/03 10:15:20;;;;;;;7.13;3.43;;;9.70;99.90;;;;;;5049799;28;20764;-72
2023/01/03 10:18:07;;;;;;;5.63;3.70;;;9.80;99.90;;;;;;5049278;28;20433;-71
2023/01/03 10:21:01;;;;;;;4.80;3.00;;;9.80;99.90;;;;;;5049623;28;20779;-70
2023/01/03 10:23:29;;;;;;;8.20;3.73;;;9.80;99.90;;;;;;5031808;28;20469;-71
2023/01/03 10:25:55;;;;;;;7.40;2.80;;;9.80;99.90;;;;;;5049596;28;20423;-71
2023/01/03 10:28:25;;;;;;;5.30;3.73;;;9.80;99.90;;;;;;5049641;28;20776;-69
2023/01/03 10:31:16;;;;;;;5.77;3.37;;;9.80;99.90;;;;;;5048897;28;20565;-68
2023/01/03 10:33:47;;;;;;;7.93;4.47;;;9.80;99.90;;;;;;5049598;28;20416;-69
2023/01/03 10:36:15;;;;;;;13.13;5.20;;;10.10;99.90;;;;;;5049648;28;20469;-68
2023/01/03 10:38:43;;;;;;;14.90;7.10;;;10.50;99.90;;;;;;5049704;28;20412;-70
2023/01/03 10:41:21;;;;;;;10.57;5.47;;;10.70;99.90;;;;;;5052756;28;20427;-71
2023/01/03 10:44:26;;;;;;;11.60;4.53;;;10.80;99.90;;;;;;5049292;28;20494;-70
2023/01/03 10:46:55;;;;;;;48.93;6.50;;;11.30;99.90;;;;;;5033080;28;20474;-70
2023/01/03 10:49:23;;;;;;;14.50;4.63;;;11.70;99.90;;;;;;5033413;28;20419;-71
2023/01/03 10:52:09;;;;;;;13.73;4.47;;;12.10;99.90;;;;;;5032084;28;20428;-71
2023/01/03 10:54:47;;;;;;;13.87;3.80;;;12.40;99.90;;;;;;5015397;28;20421;-70
2023/01/03 10:57:43;;;;;;;6.60;3.67;;;12.90;99.90;;;;;;5033055;28;20427;-71
2023/01/03 11:00:31;;;;;;;9.70;3.47;;;13.20;99.90;;;;;;5033236;28;20409;-70
2023/01/03 11:03:15;;;;;;;7.97;3.43;;;13.30;99.90;;;;;;5032242;28;20952;-71
2023/01/03 11:05:43;;;;;;;5.53;3.00;;;13.10;99.90;;;;;;5032429;28;20427;-71
2023/01/03 11:08:32;;;;;;;13.40;5.80;;;13.00;99.90;;;;;;5033382;28;20921;-71
2023/01/03 11:10:59;;;;;;;10.03;3.27;;;13.00;99.90;;;;;;5032592;28;20437;-71
2023/01/03 11:13:33;;;;;;;10.60;4.10;;;13.40;99.90;;;;;;5032276;28;20758;-71
2023/01/03 11:16:01;;;;;;;8.67;3.37;;;13.60;99.90;;;;;;5032998;28;20889;-70
2023/01/03 11:18:28;;;;;;;8.00;2.90;;;13.70;99.90;;;;;;5033026;28;20439;-71
2023/01/03 11:21:03;;;;;;;5.97;2.67;;;13.60;99.90;;;;;;5031649;28;20405;-71
2023/01/03 11:23:53;;;;;;;7.10;2.50;;;13.40;99.90;;;;;;5032642;28;20546;-71
2023/01/03 11:26:21;;;;;;;8.07;3.40;;;13.50;99.90;;;;;;5032562;28;20637;-71
2023/01/03 11:29:29;;;;;;;6.47;2.20;;;13.50;99.90;;;;;;5032311;28;20440;-70
2023/01/03 11:32:27;;;;;;;6.37;2.10;;;13.40;99.90;;;;;;5031234;28;20446;-71
2023/01/03 11:35:01;;;;;;;6.00;2.30;;;13.30;99.90;;;;;;5032446;28;20409;-70
2023/01/03 11:37:30;;;;;;;7.53;1.97;;;13.30;99.90;;;;;;5032655;28;20424;-70
2023/01/03 11:40:07;;;;;;;5.37;1.83;;;13.40;99.90;;;;;;5032455;28;20419;-70
2023/01/03 11:43:02;;;;;;;5.03;1.70;;;13.50;99.90;;;;;;5031143;28;20428;-70
2023/01/03 11:45:39;;;;;;;4.00;1.20;;;13.60;99.90;;;;;;5003254;28;20597;-71
2023/01/03 11:48:23;;;;;;;8.63;1.73;;;13.60;99.90;;;;;;5032270;28;20412;-70
2023/01/03 11:50:54;;;;;;;3.50;0.80;;;13.60;99.90;;;;;;5030955;28;20740;-70
2023/01/03 11:53:34;;;;;;;5.20;1.30;;;13.40;99.90;;;;;;5030995;28;20416;-70
2023/01/03 11:56:18;;;;;;;3.90;1.20;;;13.10;99.90;;;;;;5032071;28;20482;-70
2023/01/03 11:59:04;;;;;;;4.23;0.90;;;12.70;99.90;;;;;;5032110;28;20761;-69
2023/01/03 12:01:49;;;;;;;4.60;1.70;;;12.40;99.90;;;;;;5034046;28;20470;-68
2023/01/03 12:04:39;;;;;;;6.47;1.67;;;12.10;99.90;;;;;;5050495;28;20489;-70
2023/01/03 12:07:14;;;;;;;13.43;2.03;;;11.90;99.90;;;;;;5046274;28;20960;-70
2023/01/03 12:10:07;;;;;;;5.57;1.93;;;11.60;99.90;;;;;;5043424;28;20780;-70
2023/01/03 12:12:51;;;;;;;5.73;2.30;;;11.40;99.90;;;;;;5040136;28;20469;-73
2023/01/03 12:15:40;;;;;;;6.00;2.10;;;11.50;99.90;;;;;;5041214;28;20481;-70
2023/01/03 12:18:25;;;;;;;9.53;3.00;;;11.70;99.90;;;;;;5049228;28;20424;-72
2023/01/03 12:20:58;;;;;;;9.80;2.33;;;11.90;99.90;;;;;;5048221;28;20423;-70
2023/01/03 12:23:47;;;;;;;9.33;2.40;;;12.00;99.90;;;;;;5041647;28;20463;-71
2023/01/03 12:26:14;;;;;;;6.70;2.13;;;12.10;99.90;;;;;;5037005;28;20491;-70
2023/01/03 12:28:49;;;;;;;9.00;2.30;;;12.00;99.90;;;;;;5047521;28;20423;-71
2023/01/03 12:31:24;;;;;;;7.70;1.90;;;12.00;99.90;;;;;;5051044;28;20443;-70
2023/01/03 12:34:04;;;;;;;6.03;2.10;;;11.80;99.90;;;;;;5051578;28;20430;-69
2023/01/03 12:37:13;;;;;;;6.43;2.30;;;11.80;99.90;;;;;;5051257;28;20412;-69
2023/01/03 12:39:54;;;;;;;4.73;1.47;;;11.70;99.90;;;;;;5050543;28;20423;-70
2023/01/03 12:42:28;;;;;;;4.50;1.10;;;11.80;99.90;;;;;;5050521;28;20490;-71
2023/01/03 12:45:14;;;;;;;4.07;1.00;;;12.00;99.90;;;;;;5050650;28;21022;-71
2023/01/03 12:47:57;;;;;;;8.03;1.27;;;12.00;99.90;;;;;;5050757;28;20424;-71
2023/01/03 12:50:34;;;;;;;5.23;1.13;;;11.90;99.90;;;;;;5050938;28;20431;-70
2023/01/03 12:53:31;;;;;;;4.90;1.03;;;11.80;99.90;;;;;;5050120;28;20466;-71
2023/01/03 12:56:34;;;;;;;4.53;1.43;;;11.90;99.90;;;;;;5050860;28;20420;-70
2023/01/03 12:59:18;;;;;;;4.57;1.30;;;11.90;99.90;;;;;;5050925;28;20963;-71
2023/01/03 13:02:32;;;;;;;4.10;1.13;;;11.90;99.90;;;;;;5049532;28;20444;-69
2023/01/03 13:05:30;;;;;;;4.60;1.40;;;12.00;99.90;;;;;;5018771;28;20479;-70
2023/01/03 13:08:06;;;;;;;3.67;1.13;;;12.00;99.90;;;;;;5050335;28;20436;-71
2023/01/03 13:10:36;;;;;;;4.70;1.30;;;11.80;99.90;;;;;;5049702;28;20422;-71
2023/01/03 13:13:03;;;;;;;6.70;1.83;;;11.80;99.90;;;;;;5049668;28;20428;-70
2023/01/03 13:15:30;;;;;;;4.47;1.30;;;11.70;99.90;;;;;;5050357;28;20424;-70
2023/01/03 13:18:20;;;;;;;7.37;1.63;;;11.60;99.90;;;;;;5050552;28;20423;-71
2023/01/03 13:20:53;;;;;;;3.50;1.30;;;11.60;99.90;;;;;;5049598;28;20423;-71
2023/01/03 13:23:40;;;;;;;5.40;1.73;;;11.50;99.90;;;;;;5049643;28;20822;-70
2023/01/03 13:26:16;;;;;;;3.47;1.47;;;11.50;99.90;;;;;;5049910;28;20419;-71
2023/01/03 13:28:42;;;;;;;4.23;0.93;;;11.50;99.90;;;;;;5050284;28;20399;-70
2023/01/03 13:31:13;;;;;;;3.50;0.90;;;11.50;99.90;;;;;;5048845;28;20500;-70
2023/01/03 13:33:51;;;;;;;3.40;0.90;;;11.50;99.90;;;;;;5050432;28;20181;-73
2023/01/03 13:36:17;;;;;;;3.50;1.57;;;11.50;99.90;;;;;;5036993;28;20430;-71
2023/01/03 13:38:43;;;;;;;6.93;2.30;;;11.50;99.90;;;;;;5045888;28;20462;-71
2023/01/03 13:41:32;;;;;;;4.20;1.93;;;11.40;99.90;;;;;;5048865;28;20435;-70
2023/01/03 13:44:20;;;;;;;5.80;2.10;;;11.30;99.90;;;;;;5049728;28;20266;-71
2023/01/03 13:46:47;;;;;;;4.93;1.80;;;11.40;99.90;;;;;;5049675;28;20440;-70
2023/01/03 13:49:27;;;;;;;5.23;2.07;;;11.30;99.90;;;;;;5049907;28;20434;-71
2023/01/03 13:51:57;;;;;;;4.77;1.53;;;11.30;99.90;;;;;;5050685;28;21080;-71
2023/01/03 13:54:57;;;;;;;6.83;1.90;;;11.30;99.90;;;;;;5052121;28;20423;-71
2023/01/03 13:57:49;;;;;;;3.90;1.80;;;11.20;99.90;;;;;;4996948;28;20466;-71
2023/01/03 14:00:19;;;;;;;4.43;1.60;;;11.20;99.90;;;;;;5052158;28;20427;-70
2023/01/03 14:03:06;;;;;;;3.47;1.60;;;11.20;99.90;;;;;;5051108;28;20466;-71
2023/01/03 14:05:54;;;;;;;4.70;2.07;;;11.10;99.90;;;;;;5051556;28;20435;-70
2023/01/03 14:08:35;;;;;;;6.77;2.30;;;11.10;99.90;;;;;;5050812;28;20476;-70
2023/01/03 14:11:28;;;;;;;3.17;1.17;;;11.00;99.90;;;;;;5049833;28;20432;-68
2023/01/03 14:13:57;;;;;;;9.20;1.77;;;10.90;99.90;;;;;;5050067;28;20415;-71
2023/01/03 14:16:25;;;;;;;6.57;1.63;;;11.00;99.90;;;;;;5038540;28;20428;-71
2023/01/03 14:19:03;;;;;;;3.50;1.50;;;11.00;99.90;;;;;;5053655;28;20431;-69
2023/01/03 14:22:03;;;;;;;4.23;1.37;;;11.00;99.90;;;;;;5052437;28;20471;-70
2023/01/03 14:24:34;;;;;;;5.23;1.60;;;10.90;99.90;;;;;;5053480;28;20837;-70
2023/01/03 14:27:05;;;;;;;9.40;1.77;;;10.90;99.90;;;;;;5053782;28;20428;-70
2023/01/03 14:29:35;;;;;;;5.30;1.70;;;10.90;99.90;;;;;;5052789;28;20639;-69
2023/01/03 14:32:01;;;;;;;3.90;1.40;;;10.90;99.90;;;;;;5052763;28;20576;-71
2023/01/03 14:34:33;;;;;;;3.37;1.33;;;10.90;99.90;;;;;;5053904;28;20427;-71
2023/01/03 14:37:00;;;;;;;4.53;1.67;;;11.00;99.90;;;;;;5053042;28;20177;-70
2023/01/03 14:39:31;;;;;;;4.13;1.33;;;11.00;99.90;;;;;;5053346;28;20435;-71
2023/01/03 14:41:58;;;;;;;4.60;1.37;;;11.00;99.90;;;;;;5035072;28;20456;-70
2023/01/03 14:44:24;;;;;;;4.30;1.43;;;11.00;99.90;;;;;;5043206;28;20509;-71
2023/01/03 14:46:56;;;;;;;3.97;1.50;;;11.00;99.90;;;;;;5041290;28;20428;-71
2023/01/03 14:49:33;;;;;;;4.87;1.73;;;11.00;99.90;;;;;;5042771;28;20193;-70
2023/01/03 14:52:41;;;;;;;8.73;1.50;;;11.00;99.90;;;;;;5051125;28;20435;-71
2023/01/03 14:55:14;;;;;;;7.33;2.00;;;10.90;99.90;;;;;;5037512;28;20925;-70
2023/01/03 14:57:40;;;;;;;6.13;1.40;;;10.90;99.90;;;;;;5031178;28;20416;-71
2023/01/03 15:00:11;;;;;;;4.23;1.60;;;10.90;99.90;;;;;;5033216;28;20424;-71
2023/01/03 15:02:39;;;;;;;4.17;2.00;;;10.90;99.90;;;;;;5049829;28;20458;-71
2023/01/03 15:05:24;;;;;;;3.67;1.10;;;10.90;99.90;;;;;;5052966;28;20471;-71
2023/01/03 15:07:50;;;;;;;6.47;1.47;;;10.90;99.90;;;;;;5051819;28;20882;-70
2023/01/03 15:10:21;;;;;;;4.70;1.37;;;10.80;99.90;;;;;;5051602;28;20455;-71
2023/01/03 15:12:53;;;;;;;5.10;2.00;;;10.80;99.90;;;;;;5050272;28;20530;-71
2023/01/03 15:15:28;;;;;;;4.73;1.50;;;10.70;99.90;;;;;;5051153;28;20423;-71
2023/01/03 15:18:03;;;;;;;3.03;1.10;;;10.70;99.90;;;;;;5049921;28;20438;-71
2023/01/03 15:20:41;;;;;;;3.90;1.10;;;10.60;99.90;;;;;;5050850;28;20499;-71
2023/01/03 15:23:22;;;;;;;7.40;1.63;;;10.50;99.90;;;;;;5050472;28;20827;-71
2023/01/03 15:25:47;;;;;;;5.83;1.77;;;10.50;99.90;;;;;;5050618;28;20424;-71
2023/01/03 15:28:25;;;;;;;6.37;1.30;;;10.40;99.90;;;;;;5053037;28;20825;-71
2023/01/03 15:30:52;;;;;;;6.70;1.63;;;10.30;99.90;;;;;;5052311;28;20177;-71
2023/01/03 15:33:20;;;;;;;3.47;1.40;;;10.30;99.90;;;;;;5052157;28;20477;-71
2023/01/03 15:35:48;;;;;;;5.50;1.80;;;10.20;99.90;;;;;;5052350;28;20408;-73
2023/01/03 15:38:31;;;;;;;7.10;2.27;;;10.10;99.90;;;;;;5048047;28;20451;-72